sensor_id;sensor_type;location;lat;lon;timestamp;pressure;altitude;pressure_sealevel;temperature;humidity
49461;BME280;35355;49.198;-0.368;2022-09-20T00:00:31;101942.38;;;13.10;69.49
49461;BME280;35355;49.198;-0.368;2022-09-20T00:02:56;101937.06;;;13.04;69.46
49461;BME280;35355;49.198;-0.368;2022-09-20T00:05:21;101934.06;;;13.05;69.71
49461;BME280;35355;49.198;-0.368;2022-09-20T00:07:47;101928.25;;;13.02;69.54
49461;BME280;35355;49.198;-0.368;2022-09-20T00:10:12;101926.25;;;12.97;69.90
49461;BME280;35355;49.198;-0.368;2022-09-20T00:12:38;101931.72;;;12.97;69.77
49461;BME280;35355;49.198;-0.368;2022-09-20T00:15:04;101934.72;;;12.95;69.93
49461;BME280;35355;49.198;-0.368;2022-09-20T00:17:30;101940.47;;;12.94;69.90
49461;BME280;35355;49.198;-0.368;2022-09-20T00:19:55;101936.91;;;12.93;70.05
49461;BME280;35355;49.198;-0.368;2022-09-20T00:22:20;101938.22;;;12.91;69.77
49461;BME280;35355;49.198;-0.368;2022-09-20T00:24:46;101934.56;;;12.85;70.05
49461;BME280;35355;49.198;-0.368;2022-09-20T00:27:12;101940.59;;;12.87;69.88
49461;BME280;35355;49.198;-0.368;2022-09-20T00:29:37;101939.22;;;12.85;70.00
49461;BME280;35355;49.198;-0.368;2022-09-20T00:32:03;101940.03;;;12.85;69.83
49461;BME280;35355;49.198;-0.368;2022-09-20T00:34:28;101946.00;;;12.82;70.08
49461;BME280;35355;49.198;-0.368;2022-09-20T00:37:12;101945.69;;;12.78;68.97
49461;BME280;35355;49.198;-0.368;2022-09-20T00:39:37;101940.09;;;12.73;70.10
49461;BME280;35355;49.198;-0.368;2022-09-20T00:42:02;101938.44;;;12.72;70.07
49461;BME280;35355;49.198;-0.368;2022-09-20T00:47:20;101945.50;;;12.68;69.89
49461;BME280;35355;49.198;-0.368;2022-09-20T00:49:48;101937.66;;;12.60;69.84
49461;BME280;35355;49.198;-0.368;2022-09-20T00:52:16;101942.56;;;12.58;70.18
49461;BME280;35355;49.198;-0.368;2022-09-20T00:54:41;101935.66;;;12.55;69.99
49461;BME280;35355;49.198;-0.368;2022-09-20T00:57:07;101936.75;;;12.54;70.40
49461;BME280;35355;49.198;-0.368;2022-09-20T00:59:36;101941.16;;;12.55;70.32
49461;BME280;35355;49.198;-0.368;2022-09-20T01:02:15;101938.91;;;12.52;69.79
49461;BME280;35355;49.198;-0.368;2022-09-20T01:04:42;101942.72;;;12.51;70.06
49461;BME280;35355;49.198;-0.368;2022-09-20T01:07:10;101946.28;;;12.52;70.20
49461;BME280;35355;49.198;-0.368;2022-09-20T01:09:36;101941.28;;;12.49;70.03
49461;BME280;35355;49.198;-0.368;2022-09-20T01:12:05;101946.19;;;12.46;70.20
49461;BME280;35355;49.198;-0.368;2022-09-20T01:14:34;101940.09;;;12.44;70.29
49461;BME280;35355;49.198;-0.368;2022-09-20T01:17:03;101944.75;;;12.44;70.45
49461;BME280;35355;49.198;-0.368;2022-09-20T01:22:26;101944.44;;;12.40;69.96
49461;BME280;35355;49.198;-0.368;2022-09-20T01:30:13;101935.78;;;12.32;70.07
49461;BME280;35355;49.198;-0.368;2022-09-20T01:35:26;101933.78;;;12.27;70.68
49461;BME280;35355;49.198;-0.368;2022-09-20T01:40:48;101938.75;;;12.30;70.30
49461;BME280;35355;49.198;-0.368;2022-09-20T01:44:06;101936.03;;;12.30;70.12
49461;BME280;35355;49.198;-0.368;2022-09-20T01:46:35;101937.09;;;12.29;70.79
49461;BME280;35355;49.198;-0.368;2022-09-20T01:49:41;101944.31;;;12.35;70.16
49461;BME280;35355;49.198;-0.368;2022-09-20T02:00:18;101943.75;;;12.33;70.74
49461;BME280;35355;49.198;-0.368;2022-09-20T02:10:46;101933.66;;;12.22;71.12
49461;BME280;35355;49.198;-0.368;2022-09-20T02:13:31;101926.44;;;12.16;70.03
49461;BME280;35355;49.198;-0.368;2022-09-20T02:26:42;101923.97;;;12.02;69.78
49461;BME280;35355;49.198;-0.368;2022-09-20T02:34:54;101915.63;;;11.97;70.16
49461;BME280;35355;49.198;-0.368;2022-09-20T02:43:03;101911.75;;;11.93;70.71
49461;BME280;35355;49.198;-0.368;2022-09-20T02:48:02;101908.38;;;11.91;70.68
49461;BME280;35355;49.198;-0.368;2022-09-20T02:50:37;101912.19;;;11.90;70.90
49461;BME280;35355;49.198;-0.368;2022-09-20T02:53:35;101915.16;;;11.88;70.53
49461;BME280;35355;49.198;-0.368;2022-09-20T02:56:23;101917.56;;;11.85;70.26
49461;BME280;35355;49.198;-0.368;2022-09-20T03:06:41;101909.84;;;11.82;70.86
49461;BME280;35355;49.198;-0.368;2022-09-20T03:09:37;101907.59;;;11.79;70.73
49461;BME280;35355;49.198;-0.368;2022-09-20T03:12:20;101903.78;;;11.80;71.08
49461;BME280;35355;49.198;-0.368;2022-09-20T03:18:18;101900.44;;;11.77;70.89
49461;BME280;35355;49.198;-0.368;2022-09-20T03:25:54;101893.41;;;11.82;71.22
49461;BME280;35355;49.198;-0.368;2022-09-20T03:28:34;101887.13;;;11.81;71.20
49461;BME280;35355;49.198;-0.368;2022-09-20T03:37:12;101897.34;;;11.86;71.24
49461;BME280;35355;49.198;-0.368;2022-09-20T03:42:44;101898.66;;;11.83;71.73
49461;BME280;35355;49.198;-0.368;2022-09-20T03:52:56;101914.34;;;11.88;71.08
49461;BME280;35355;49.198;-0.368;2022-09-20T04:12:22;101912.16;;;12.14;71.37
49461;BME280;35355;49.198;-0.368;2022-09-20T04:15:17;101900.97;;;12.15;71.28
49461;BME280;35355;49.198;-0.368;2022-09-20T04:20:54;101911.19;;;12.20;71.38
49461;BME280;35355;49.198;-0.368;2022-09-20T04:26:24;101893.91;;;12.19;71.25
49461;BME280;35355;49.198;-0.368;2022-09-20T04:34:04;101898.19;;;12.27;71.26
49461;BME280;35355;49.198;-0.368;2022-09-20T04:36:54;101899.59;;;12.29;70.99
49461;BME280;35355;49.198;-0.368;2022-09-20T04:39:34;101893.28;;;12.29;71.17
49461;BME280;35355;49.198;-0.368;2022-09-20T04:55:54;101902.91;;;12.32;71.19
49461;BME280;35355;49.198;-0.368;2022-09-20T05:01:18;101903.00;;;12.37;71.41
49461;BME280;35355;49.198;-0.368;2022-09-20T05:09:21;101921.91;;;12.38;70.94
49461;BME280;35355;49.198;-0.368;2022-09-20T05:17:35;101917.06;;;12.40;71.18
49461;BME280;35355;49.198;-0.368;2022-09-20T05:41:47;101904.25;;;11.65;70.72
49461;BME280;35355;49.198;-0.368;2022-09-20T05:55:14;101917.75;;;12.07;72.24
49461;BME280;35355;49.198;-0.368;2022-09-20T06:01:06;101908.69;;;12.18;72.12
49461;BME280;35355;49.198;-0.368;2022-09-20T06:03:41;101914.84;;;12.25;71.51
49461;BME280;35355;49.198;-0.368;2022-09-20T06:17:27;101932.31;;;12.53;72.10
49461;BME280;35355;49.198;-0.368;2022-09-20T06:20:07;101921.53;;;12.46;72.03
49461;BME280;35355;49.198;-0.368;2022-09-20T06:25:14;101921.03;;;12.50;72.09
49461;BME280;35355;49.198;-0.368;2022-09-20T06:27:44;101928.38;;;12.61;71.97
49461;BME280;35355;49.198;-0.368;2022-09-20T06:30:21;101928.88;;;12.58;71.84
49461;BME280;35355;49.198;-0.368;2022-09-20T06:33:14;101936.09;;;12.64;71.61
49461;BME280;35355;49.198;-0.368;2022-09-20T06:35:52;101931.13;;;12.61;71.50
49461;BME280;35355;49.198;-0.368;2022-09-20T06:41:25;101925.66;;;12.61;72.08
49461;BME280;35355;49.198;-0.368;2022-09-20T06:43:59;101933.69;;;12.68;72.09
49461;BME280;35355;49.198;-0.368;2022-09-20T06:46:29;101935.84;;;12.66;71.88
49461;BME280;35355;49.198;-0.368;2022-09-20T06:48:55;101927.28;;;12.62;71.82
49461;BME280;35355;49.198;-0.368;2022-09-20T06:51:22;101951.88;;;12.74;72.07
49461;BME280;35355;49.198;-0.368;2022-09-20T06:53:49;101944.66;;;12.68;72.17
49461;BME280;35355;49.198;-0.368;2022-09-20T06:56:18;101941.41;;;12.71;72.10
49461;BME280;35355;49.198;-0.368;2022-09-20T06:58:44;101947.13;;;12.69;72.07
49461;BME280;35355;49.198;-0.368;2022-09-20T07:01:10;101951.63;;;12.75;71.99
49461;BME280;35355;49.198;-0.368;2022-09-20T07:03:38;101926.22;;;12.63;72.29
49461;BME280;35355;49.198;-0.368;2022-09-20T07:06:04;101937.28;;;12.68;72.50
49461;BME280;35355;49.198;-0.368;2022-09-20T07:08:29;101932.03;;;12.67;72.28
49461;BME280;35355;49.198;-0.368;2022-09-20T07:10:55;101930.63;;;12.64;72.44
49461;BME280;35355;49.198;-0.368;2022-09-20T07:13:20;101941.66;;;12.69;72.31
49461;BME280;35355;49.198;-0.368;2022-09-20T07:15:46;101948.63;;;12.77;72.62
49461;BME280;35355;49.198;-0.368;2022-09-20T07:18:12;101922.16;;;12.66;72.85
49461;BME280;35355;49.198;-0.368;2022-09-20T07:20:37;101926.91;;;12.70;72.46
49461;BME280;35355;49.198;-0.368;2022-09-20T07:23:03;101937.34;;;12.73;72.77
49461;BME280;35355;49.198;-0.368;2022-09-20T07:25:30;101941.16;;;12.72;72.83
49461;BME280;35355;49.198;-0.368;2022-09-20T07:27:56;101932.88;;;12.67;72.81
49461;BME280;35355;49.198;-0.368;2022-09-20T07:30:22;101946.81;;;12.82;72.92
49461;BME280;35355;49.198;-0.368;2022-09-20T07:32:48;101937.34;;;12.73;73.10
49461;BME280;35355;49.198;-0.368;2022-09-20T07:35:14;101952.91;;;12.85;73.04
49461;BME280;35355;49.198;-0.368;2022-09-20T07:37:40;101939.03;;;12.74;73.23
49461;BME280;35355;49.198;-0.368;2022-09-20T07:40:06;101964.69;;;12.85;73.14
49461;BME280;35355;49.198;-0.368;2022-09-20T07:42:31;101947.00;;;12.76;73.24
49461;BME280;35355;49.198;-0.368;2022-09-20T07:44:57;101958.28;;;12.79;73.35
49461;BME280;35355;49.198;-0.368;2022-09-20T07:47:24;101961.69;;;12.87;73.07
49461;BME280;35355;49.198;-0.368;2022-09-20T07:49:51;101949.00;;;12.80;73.30
49461;BME280;35355;49.198;-0.368;2022-09-20T07:52:17;101966.44;;;12.91;73.19
49461;BME280;35355;49.198;-0.368;2022-09-20T07:54:43;101967.03;;;12.93;73.13
49461;BME280;35355;49.198;-0.368;2022-09-20T07:57:10;101963.44;;;12.93;73.35
49461;BME280;35355;49.198;-0.368;2022-09-20T07:59:35;101953.97;;;12.84;73.34
49461;BME280;35355;49.198;-0.368;2022-09-20T08:02:00;101962.63;;;12.92;73.00
49461;BME280;35355;49.198;-0.368;2022-09-20T08:04:26;101959.78;;;12.87;73.10
49461;BME280;35355;49.198;-0.368;2022-09-20T08:06:52;101955.16;;;12.88;73.39
49461;BME280;35355;49.198;-0.368;2022-09-20T08:09:17;101970.91;;;12.97;73.42
49461;BME280;35355;49.198;-0.368;2022-09-20T08:11:43;101960.22;;;12.96;73.18
49461;BME280;35355;49.198;-0.368;2022-09-20T08:14:15;101966.28;;;12.98;73.45
49461;BME280;35355;49.198;-0.368;2022-09-20T08:16:43;101965.69;;;12.96;73.35
49461;BME280;35355;49.198;-0.368;2022-09-20T08:19:14;101962.13;;;12.95;73.19
49461;BME280;35355;49.198;-0.368;2022-09-20T08:21:39;101986.47;;;13.09;73.66
49461;BME280;35355;49.198;-0.368;2022-09-20T08:24:05;101971.28;;;13.01;73.31
49461;BME280;35355;49.198;-0.368;2022-09-20T08:26:30;101992.88;;;13.14;73.63
49461;BME280;35355;49.198;-0.368;2022-09-20T08:28:57;101976.34;;;13.09;73.53
49461;BME280;35355;49.198;-0.368;2022-09-20T08:31:25;101995.19;;;13.23;73.52
49461;BME280;35355;49.198;-0.368;2022-09-20T08:33:52;101991.06;;;13.20;73.25
49461;BME280;35355;49.198;-0.368;2022-09-20T08:36:20;102001.34;;;13.30;73.48
49461;BME280;35355;49.198;-0.368;2022-09-20T08:38:46;101990.88;;;13.27;73.47
49461;BME280;35355;49.198;-0.368;2022-09-20T08:41:22;101988.75;;;13.29;73.11
49461;BME280;35355;49.198;-0.368;2022-09-20T08:43:54;101993.72;;;13.32;73.13
49461;BME280;35355;49.198;-0.368;2022-09-20T08:46:27;101998.72;;;13.35;72.99
49461;BME280;35355;49.198;-0.368;2022-09-20T08:48:54;101988.59;;;13.36;73.46
49461;BME280;35355;49.198;-0.368;2022-09-20T08:51:22;102011.03;;;13.49;73.32
49461;BME280;35355;49.198;-0.368;2022-09-20T08:53:52;102012.19;;;13.54;73.01
49461;BME280;35355;49.198;-0.368;2022-09-20T08:56:19;102014.66;;;13.55;73.26
49461;BME280;35355;49.198;-0.368;2022-09-20T08:58:45;101994.41;;;13.56;73.17
49461;BME280;35355;49.198;-0.368;2022-09-20T09:01:22;102009.19;;;13.72;72.96
49461;BME280;35355;49.198;-0.368;2022-09-20T09:04:20;102003.75;;;13.77;73.12
49461;BME280;35355;49.198;-0.368;2022-09-20T09:06:44;101998.91;;;13.84;73.21
49461;BME280;35355;49.198;-0.368;2022-09-20T09:09:21;101999.66;;;13.97;72.86
49461;BME280;35355;49.198;-0.368;2022-09-20T09:11:49;101999.44;;;14.03;72.70
49461;BME280;35355;49.198;-0.368;2022-09-20T09:17:08;101993.97;;;14.26;72.73
49461;BME280;35355;49.198;-0.368;2022-09-20T09:22:18;101993.31;;;14.41;72.65
49461;BME280;35355;49.198;-0.368;2022-09-20T09:24:44;102002.44;;;14.46;72.35
49461;BME280;35355;49.198;-0.368;2022-09-20T09:27:18;102005.78;;;14.48;72.55
49461;BME280;35355;49.198;-0.368;2022-09-20T09:29:54;102007.75;;;14.53;72.38
49461;BME280;35355;49.198;-0.368;2022-09-20T09:32:25;102010.25;;;14.54;72.73
49461;BME280;35355;49.198;-0.368;2022-09-20T09:34:53;102005.91;;;14.59;72.90
49461;BME280;35355;49.198;-0.368;2022-09-20T09:37:25;102015.03;;;14.64;72.74
49461;BME280;35355;49.198;-0.368;2022-09-20T09:40:15;102008.53;;;14.70;72.68
49461;BME280;35355;49.198;-0.368;2022-09-20T09:43:01;102005.84;;;14.76;72.56
49461;BME280;35355;49.198;-0.368;2022-09-20T09:45:32;102011.13;;;14.82;72.81
49461;BME280;35355;49.198;-0.368;2022-09-20T09:48:21;102006.75;;;14.86;72.50
49461;BME280;35355;49.198;-0.368;2022-09-20T09:50:47;102010.09;;;14.88;72.72
49461;BME280;35355;49.198;-0.368;2022-09-20T09:53:21;102018.38;;;14.94;72.71
49461;BME280;35355;49.198;-0.368;2022-09-20T10:04:47;102013.41;;;15.18;72.40
49461;BME280;35355;49.198;-0.368;2022-09-20T10:15:42;102011.13;;;15.47;72.64
49461;BME280;35355;49.198;-0.368;2022-09-20T10:18:26;102010.09;;;15.53;72.39
49461;BME280;35355;49.198;-0.368;2022-09-20T10:21:13;102007.38;;;15.58;72.49
49461;BME280;35355;49.198;-0.368;2022-09-20T10:23:49;102012.34;;;15.61;72.50
49461;BME280;35355;49.198;-0.368;2022-09-20T10:39:52;102004.69;;;16.06;72.93
49461;BME280;35355;49.198;-0.368;2022-09-20T10:42:24;102007.22;;;16.18;73.00
49461;BME280;35355;49.198;-0.368;2022-09-20T10:45:21;101997.88;;;16.29;72.83
49461;BME280;35355;49.198;-0.368;2022-09-20T10:48:10;101996.81;;;16.41;72.75
49461;BME280;35355;49.198;-0.368;2022-09-20T10:50:44;101997.94;;;16.50;73.08
49461;BME280;35355;49.198;-0.368;2022-09-20T10:53:32;101997.97;;;16.60;72.43
49461;BME280;35355;49.198;-0.368;2022-09-20T10:56:24;101987.50;;;16.67;72.39
49461;BME280;35355;49.198;-0.368;2022-09-20T11:10:27;101989.25;;;16.89;72.33
49461;BME280;35355;49.198;-0.368;2022-09-20T11:13:02;101988.97;;;16.96;71.60
49461;BME280;35355;49.198;-0.368;2022-09-20T11:15:43;101982.91;;;16.94;71.50
49461;BME280;35355;49.198;-0.368;2022-09-20T11:18:39;101988.16;;;16.95;71.55
49461;BME280;35355;49.198;-0.368;2022-09-20T11:21:24;101977.66;;;16.97;71.66
49461;BME280;35355;49.198;-0.368;2022-09-20T11:28:53;101981.53;;;17.12;70.86
49461;BME280;35355;49.198;-0.368;2022-09-20T11:34:14;101974.91;;;17.23;70.23
49461;BME280;35355;49.198;-0.368;2022-09-20T11:36:48;101971.03;;;17.24;69.47
49461;BME280;35355;49.198;-0.368;2022-09-20T11:39:22;101973.50;;;17.26;69.26
49461;BME280;35355;49.198;-0.368;2022-09-20T11:41:51;101976.28;;;17.26;68.93
49461;BME280;35355;49.198;-0.368;2022-09-20T11:44:19;101975.47;;;17.25;68.37
49461;BME280;35355;49.198;-0.368;2022-09-20T11:46:45;101974.63;;;17.19;67.94
49461;BME280;35355;49.198;-0.368;2022-09-20T11:58:05;101976.00;;;17.01;67.45
49461;BME280;35355;49.198;-0.368;2022-09-20T12:00:34;101979.88;;;17.06;66.54
49461;BME280;35355;49.198;-0.368;2022-09-20T12:03:02;101977.97;;;17.11;66.55
49461;BME280;35355;49.198;-0.368;2022-09-20T12:05:32;101973.00;;;17.18;65.85
49461;BME280;35355;49.198;-0.368;2022-09-20T12:08:01;101967.19;;;17.25;65.35
49461;BME280;35355;49.198;-0.368;2022-09-20T12:10:33;101972.72;;;17.30;65.29
49461;BME280;35355;49.198;-0.368;2022-09-20T12:13:21;101976.25;;;17.36;65.82
49461;BME280;35355;49.198;-0.368;2022-09-20T12:15:57;101978.22;;;17.35;64.96
49461;BME280;35355;49.198;-0.368;2022-09-20T12:21:06;101972.44;;;17.32;63.65
49461;BME280;35355;49.198;-0.368;2022-09-20T12:26:09;101966.06;;;17.31;64.00
49461;BME280;35355;49.198;-0.368;2022-09-20T12:28:48;101968.84;;;17.36;64.29
49461;BME280;35355;49.198;-0.368;2022-09-20T12:36:36;101959.69;;;17.51;63.27
49461;BME280;35355;49.198;-0.368;2022-09-20T12:41:52;101952.78;;;17.64;63.81
49461;BME280;35355;49.198;-0.368;2022-09-20T12:52:31;101942.78;;;17.84;63.01
49461;BME280;35355;49.198;-0.368;2022-09-20T13:03:10;101951.91;;;17.74;63.50
49461;BME280;35355;49.198;-0.368;2022-09-20T13:05:39;101936.72;;;17.71;63.33
49461;BME280;35355;49.198;-0.368;2022-09-20T13:08:14;101947.75;;;17.71;63.26
49461;BME280;35355;49.198;-0.368;2022-09-20T13:10:46;101935.63;;;17.73;63.29
49461;BME280;35355;49.198;-0.368;2022-09-20T13:13:29;101936.19;;;17.75;63.40
49461;BME280;35355;49.198;-0.368;2022-09-20T13:15:56;101934.53;;;17.74;62.73
49461;BME280;35355;49.198;-0.368;2022-09-20T13:18:24;101935.91;;;17.76;62.69
49461;BME280;35355;49.198;-0.368;2022-09-20T13:20:50;101942.78;;;17.79;62.65
49461;BME280;35355;49.198;-0.368;2022-09-20T13:23:22;101937.81;;;17.81;62.22
49461;BME280;35355;49.198;-0.368;2022-09-20T13:25:50;101936.16;;;17.80;61.87
49461;BME280;35355;49.198;-0.368;2022-09-20T13:28:30;101934.22;;;17.80;62.41
49461;BME280;35355;49.198;-0.368;2022-09-20T13:31:21;101944.44;;;17.80;62.53
49461;BME280;35355;49.198;-0.368;2022-09-20T13:33:48;101933.97;;;17.77;61.33
49461;BME280;35355;49.198;-0.368;2022-09-20T13:36:21;101940.88;;;17.74;61.46
49461;BME280;35355;49.198;-0.368;2022-09-20T13:38:48;101932.84;;;17.73;60.46
49461;BME280;35355;49.198;-0.368;2022-09-20T13:41:14;101940.03;;;17.68;60.07
49461;BME280;35355;49.198;-0.368;2022-09-20T13:43:42;101942.00;;;17.68;60.11
49461;BME280;35355;49.198;-0.368;2022-09-20T13:46:10;101927.66;;;17.66;59.65
49461;BME280;35355;49.198;-0.368;2022-09-20T13:48:36;101931.78;;;17.63;59.37
49461;BME280;35355;49.198;-0.368;2022-09-20T13:51:02;101940.06;;;17.63;59.36
49461;BME280;35355;49.198;-0.368;2022-09-20T14:11:16;101927.75;;;17.04;62.21
49461;BME280;35355;49.198;-0.368;2022-09-20T14:13:45;101922.50;;;17.08;61.15
49461;BME280;35355;49.198;-0.368;2022-09-20T14:16:12;101930.22;;;17.16;60.89
49461;BME280;35355;49.198;-0.368;2022-09-20T14:18:39;101926.06;;;17.24;60.93
49461;BME280;35355;49.198;-0.368;2022-09-20T14:21:09;101928.56;;;17.30;61.22
49461;BME280;35355;49.198;-0.368;2022-09-20T14:26:40;101927.41;;;17.47;61.89
49461;BME280;35355;49.198;-0.368;2022-09-20T14:29:38;101929.06;;;17.53;62.29
49461;BME280;35355;49.198;-0.368;2022-09-20T14:35:56;101908.59;;;17.59;62.32
49461;BME280;35355;49.198;-0.368;2022-09-20T14:38:24;101909.16;;;17.61;62.50
49461;BME280;35355;49.198;-0.368;2022-09-20T14:40:50;101920.75;;;17.63;62.43
49461;BME280;35355;49.198;-0.368;2022-09-20T14:45:58;101909.97;;;17.62;62.73
49461;BME280;35355;49.198;-0.368;2022-09-20T14:48:37;101906.41;;;17.61;62.08
49461;BME280;35355;49.198;-0.368;2022-09-20T14:53:41;101907.50;;;17.60;61.97
49461;BME280;35355;49.198;-0.368;2022-09-20T14:56:10;101913.03;;;17.60;62.09
49461;BME280;35355;49.198;-0.368;2022-09-20T15:01:28;101907.50;;;17.60;61.78
49461;BME280;35355;49.198;-0.368;2022-09-20T15:03:55;101901.97;;;17.60;61.86
49461;BME280;35355;49.198;-0.368;2022-09-20T15:06:21;101907.50;;;17.60;61.73
49461;BME280;35355;49.198;-0.368;2022-09-20T15:08:47;101908.06;;;17.57;62.07
49461;BME280;35355;49.198;-0.368;2022-09-20T15:11:13;101909.16;;;17.56;61.93
49461;BME280;35355;49.198;-0.368;2022-09-20T15:13:39;101908.06;;;17.57;62.33
49461;BME280;35355;49.198;-0.368;2022-09-20T15:16:06;101903.09;;;17.59;62.39
49461;BME280;35355;49.198;-0.368;2022-09-20T15:18:37;101904.47;;;17.62;62.48
49461;BME280;35355;49.198;-0.368;2022-09-20T15:21:04;101903.66;;;17.61;62.69
49461;BME280;35355;49.198;-0.368;2022-09-20T15:23:30;101898.94;;;17.57;63.07
49461;BME280;35355;49.198;-0.368;2022-09-20T15:25:56;101901.97;;;17.55;63.05
49461;BME280;35355;49.198;-0.368;2022-09-20T15:28:22;101897.03;;;17.57;63.17
49461;BME280;35355;49.198;-0.368;2022-09-20T15:30:49;101896.19;;;17.57;62.87
49461;BME280;35355;49.198;-0.368;2022-09-20T15:33:17;101898.69;;;17.53;62.70
49461;BME280;35355;49.198;-0.368;2022-09-20T15:35:44;101914.72;;;17.51;62.69
49461;BME280;35355;49.198;-0.368;2022-09-20T15:38:10;101908.91;;;17.47;62.86
49461;BME280;35355;49.198;-0.368;2022-09-20T15:40:40;101898.97;;;17.46;62.80
49461;BME280;35355;49.198;-0.368;2022-09-20T15:43:06;101899.25;;;17.45;62.76
49461;BME280;35355;49.198;-0.368;2022-09-20T15:45:34;101901.47;;;17.43;62.74
49461;BME280;35355;49.198;-0.368;2022-09-20T15:48:00;101899.25;;;17.45;63.24
49461;BME280;35355;49.198;-0.368;2022-09-20T15:50:27;101908.66;;;17.44;62.86
49461;BME280;35355;49.198;-0.368;2022-09-20T15:52:53;101905.34;;;17.42;63.01
49461;BME280;35355;49.198;-0.368;2022-09-20T15:55:20;101907.56;;;17.40;62.81
49461;BME280;35355;49.198;-0.368;2022-09-20T15:57:46;101908.94;;;17.37;62.75
49461;BME280;35355;49.198;-0.368;2022-09-20T16:00:14;101910.31;;;17.34;62.63
49461;BME280;35355;49.198;-0.368;2022-09-20T16:02:41;101914.19;;;17.33;62.61
49461;BME280;35355;49.198;-0.368;2022-09-20T16:05:07;101906.75;;;17.29;62.73
49461;BME280;35355;49.198;-0.368;2022-09-20T16:07:34;101902.88;;;17.30;62.46
49461;BME280;35355;49.198;-0.368;2022-09-20T16:10:00;101908.41;;;17.30;62.66
49461;BME280;35355;49.198;-0.368;2022-09-20T16:12:25;101907.03;;;17.27;62.44
49461;BME280;35355;49.198;-0.368;2022-09-20T16:14:51;101905.91;;;17.28;62.78
49461;BME280;35355;49.198;-0.368;2022-09-20T16:17:17;101903.72;;;17.25;62.75
49461;BME280;35355;49.198;-0.368;2022-09-20T16:19:43;101912.81;;;17.26;62.75
49461;BME280;35355;49.198;-0.368;2022-09-20T16:22:14;101911.19;;;17.25;62.80
49461;BME280;35355;49.198;-0.368;2022-09-20T16:24:40;101925.78;;;17.25;62.75
49461;BME280;35355;49.198;-0.368;2022-09-20T16:27:06;101905.94;;;17.23;62.60
49461;BME280;35355;49.198;-0.368;2022-09-20T16:29:33;101908.41;;;17.19;62.76
49461;BME280;35355;49.198;-0.368;2022-09-20T16:31:59;101915.34;;;17.17;62.43
49461;BME280;35355;49.198;-0.368;2022-09-20T16:34:32;101909.25;;;17.15;62.67
49461;BME280;35355;49.198;-0.368;2022-09-20T16:37:01;101913.09;;;17.14;62.49
49461;BME280;35355;49.198;-0.368;2022-09-20T16:39:28;101923.59;;;17.12;62.20
49461;BME280;35355;49.198;-0.368;2022-09-20T16:41:59;101917.25;;;17.11;62.43
49461;BME280;35355;49.198;-0.368;2022-09-20T16:44:30;101930.22;;;17.11;62.27
49461;BME280;35355;49.198;-0.368;2022-09-20T16:46:56;101931.06;;;17.11;62.00
49461;BME280;35355;49.198;-0.368;2022-09-20T16:49:21;101928.00;;;17.08;61.73
49461;BME280;35355;49.198;-0.368;2022-09-20T16:51:51;101927.47;;;17.06;61.74
49461;BME280;35355;49.198;-0.368;2022-09-20T16:54:17;101926.91;;;17.04;61.75
49461;BME280;35355;49.198;-0.368;2022-09-20T16:56:48;101929.13;;;17.01;61.78
49461;BME280;35355;49.198;-0.368;2022-09-20T16:59:16;101921.66;;;17.02;61.82
49461;BME280;35355;49.198;-0.368;2022-09-20T17:01:43;101927.44;;;17.00;61.65
49461;BME280;35355;49.198;-0.368;2022-09-20T17:04:09;101929.13;;;16.96;61.56
49461;BME280;35355;49.198;-0.368;2022-09-20T17:06:38;101928.56;;;16.94;61.59
49461;BME280;35355;49.198;-0.368;2022-09-20T17:09:05;101923.59;;;16.91;61.45
49461;BME280;35355;49.198;-0.368;2022-09-20T17:11:41;101925.81;;;16.89;61.56
49461;BME280;35355;49.198;-0.368;2022-09-20T17:14:10;101923.59;;;16.86;61.26
49461;BME280;35355;49.198;-0.368;2022-09-20T17:16:38;101932.41;;;16.83;61.11
49461;BME280;35355;49.198;-0.368;2022-09-20T17:19:09;101925.50;;;16.80;61.27
49461;BME280;35355;49.198;-0.368;2022-09-20T17:21:38;101927.97;;;16.77;61.64
49461;BME280;35355;49.198;-0.368;2022-09-20T17:24:06;101929.09;;;16.76;61.63
49461;BME280;35355;49.198;-0.368;2022-09-20T17:26:36;101940.13;;;16.76;61.65
49461;BME280;35355;49.198;-0.368;2022-09-20T17:29:08;101939.53;;;16.74;61.61
49461;BME280;35355;49.198;-0.368;2022-09-20T17:31:36;101941.75;;;16.72;61.33
49461;BME280;35355;49.198;-0.368;2022-09-20T17:34:05;101936.81;;;16.69;61.57
49461;BME280;35355;49.198;-0.368;2022-09-20T17:36:42;101939.56;;;16.69;61.70
49461;BME280;35355;49.198;-0.368;2022-09-20T17:39:10;101938.97;;;16.66;61.57
49461;BME280;35355;49.198;-0.368;2022-09-20T17:41:38;101942.88;;;16.65;61.34
49461;BME280;35355;49.198;-0.368;2022-09-20T17:44:05;101943.97;;;16.64;61.41
49461;BME280;35355;49.198;-0.368;2022-09-20T17:46:33;101940.94;;;16.61;61.48
49461;BME280;35355;49.198;-0.368;2022-09-20T17:49:03;101951.97;;;16.61;61.74
49461;BME280;35355;49.198;-0.368;2022-09-20T17:51:41;101947.25;;;16.61;61.61
49461;BME280;35355;49.198;-0.368;2022-09-20T17:54:07;101946.69;;;16.59;61.23
49461;BME280;35355;49.198;-0.368;2022-09-20T17:56:33;101946.16;;;16.57;61.18
49461;BME280;35355;49.198;-0.368;2022-09-20T17:59:04;101945.59;;;16.55;61.40
49461;BME280;35355;49.198;-0.368;2022-09-20T18:01:32;101947.50;;;16.55;61.07
49461;BME280;35355;49.198;-0.368;2022-09-20T18:03:59;101947.50;;;16.55;61.01
49461;BME280;35355;49.198;-0.368;2022-09-20T18:06:27;101939.50;;;16.53;60.73
49461;BME280;35355;49.198;-0.368;2022-09-20T18:08:58;101938.69;;;16.53;60.76
49461;BME280;35355;49.198;-0.368;2022-09-20T18:11:39;101942.53;;;16.52;60.77
49461;BME280;35355;49.198;-0.368;2022-09-20T18:14:07;101949.19;;;16.51;60.64
49461;BME280;35355;49.198;-0.368;2022-09-20T18:16:34;101955.50;;;16.51;60.73
49461;BME280;35355;49.198;-0.368;2022-09-20T18:19:01;101940.06;;;16.50;60.79
49461;BME280;35355;49.198;-0.368;2022-09-20T18:21:29;101949.44;;;16.49;60.87
49461;BME280;35355;49.198;-0.368;2022-09-20T18:23:56;101946.13;;;16.47;60.53